createdAt,value
2024-01-11T00:00:56.563Z,-0.77
2024-01-11T00:06:13.013Z,-0.74
2024-01-11T00:11:17.524Z,-0.72
2024-01-11T00:16:20.003Z,-0.63
2024-01-11T00:21:21.465Z,-0.57
2024-01-11T00:26:23.032Z,-0.55
2024-01-11T00:31:24.635Z,-0.51
2024-01-11T00:36:26.146Z,-0.51
2024-01-11T00:41:27.725Z,-0.53
2024-01-11T00:46:29.306Z,-0.55
2024-01-11T00:51:30.771Z,-0.52
2024-01-11T00:56:32.327Z,-0.48
2024-01-11T01:01:33.888Z,-0.42
2024-01-11T01:06:35.466Z,-0.38
2024-01-11T01:11:37.082Z,-0.34
2024-01-11T01:16:38.640Z,-0.29
2024-01-11T01:21:40.396Z,-0.28
2024-01-11T01:26:42.339Z,-0.30
2024-01-11T01:31:44.054Z,-0.28
2024-01-11T01:36:45.601Z,-0.22
2024-01-11T01:41:47.162Z,-0.14
2024-01-11T01:46:49.681Z,-0.06
2024-01-11T01:51:54.223Z,-0.03
2024-01-11T01:56:56.574Z,0.02
2024-01-11T02:01:59.149Z,0.01
2024-01-11T02:07:02.158Z,0.03
2024-01-11T02:12:05.511Z,0.06
2024-01-11T02:17:07.051Z,0.05
2024-01-11T02:22:34.350Z,0.06
2024-01-11T02:27:50.157Z,0.10
2024-01-11T02:32:52.263Z,0.15
2024-01-11T02:37:54.947Z,0.18
2024-01-11T02:42:56.469Z,0.26
2024-01-11T02:47:58.165Z,0.34
2024-01-11T02:53:00.012Z,0.41
2024-01-11T02:58:01.532Z,0.45
2024-01-11T03:03:03.513Z,0.49
2024-01-11T03:08:05.480Z,0.51
2024-01-11T03:13:08.018Z,0.52
2024-01-11T03:18:10.257Z,0.57
2024-01-11T03:23:12.003Z,0.59
2024-01-11T03:28:13.832Z,0.63
2024-01-11T03:33:15.457Z,0.66
2024-01-11T03:38:17.114Z,0.66
2024-01-11T03:43:19.084Z,0.67
2024-01-11T03:48:20.673Z,0.70
2024-01-11T03:53:22.260Z,0.67
2024-01-11T03:58:23.822Z,0.68
2024-01-11T04:03:25.346Z,0.69
2024-01-11T04:08:26.924Z,0.70
2024-01-11T04:13:28.421Z,0.70
2024-01-11T04:18:30.066Z,0.73
2024-01-11T04:23:31.721Z,0.75
2024-01-11T04:28:33.268Z,0.74
2024-01-11T04:33:34.855Z,0.75
2024-01-11T04:38:40.353Z,0.76
2024-01-11T04:43:44.468Z,0.77
2024-01-11T04:48:47.921Z,0.74
2024-01-11T04:53:49.717Z,0.73
2024-01-11T04:58:51.196Z,0.74
2024-01-11T05:03:52.705Z,0.75
2024-01-11T05:08:54.336Z,0.75
2024-01-11T05:13:55.959Z,0.77
2024-01-11T05:18:58.934Z,0.79
2024-01-11T05:24:01.240Z,0.80
2024-01-11T05:29:05.079Z,0.80
2024-01-11T05:34:06.728Z,0.78
2024-01-11T05:39:08.393Z,0.80
2024-01-11T05:44:10.054Z,0.79
2024-01-11T05:49:11.682Z,0.79
2024-01-11T05:54:13.416Z,0.81
2024-01-11T05:59:14.974Z,0.80
2024-01-11T06:04:16.986Z,0.78
2024-01-11T06:09:18.565Z,0.77
2024-01-11T06:14:20.701Z,0.77
2024-01-11T06:19:23.643Z,0.78
2024-01-11T06:24:25.158Z,0.77
2024-01-11T06:29:27.088Z,0.76
2024-01-11T06:34:28.928Z,0.76
2024-01-11T06:39:30.420Z,0.77
2024-01-11T06:44:34.736Z,0.76
2024-01-11T06:49:40.478Z,0.77
2024-01-11T06:54:42.639Z,0.79
2024-01-11T06:59:46.798Z,0.78
2024-01-11T07:04:48.370Z,0.81
2024-01-11T07:09:50.101Z,0.80
2024-01-11T07:14:52.243Z,0.79
2024-01-11T07:19:54.005Z,0.80
2024-01-11T07:24:55.506Z,0.81
2024-01-11T07:29:57.057Z,0.83
2024-01-11T07:34:58.665Z,0.81
2024-01-11T07:40:00.226Z,0.81
2024-01-11T07:45:01.968Z,0.81
2024-01-11T07:50:10.128Z,0.81
2024-01-11T07:55:13.090Z,0.82
2024-01-11T08:00:15.088Z,0.85
2024-01-11T08:05:16.795Z,0.83
2024-01-11T08:10:18.446Z,0.86
2024-01-11T08:15:20.005Z,0.90
2024-01-11T08:20:21.717Z,0.91
2024-01-11T08:25:23.325Z,0.89
2024-01-11T08:30:24.887Z,0.90
2024-01-11T08:35:26.828Z,0.93
2024-01-11T08:40:28.402Z,0.98
2024-01-11T08:45:30.238Z,1.02
2024-01-11T08:50:33.261Z,1.06
2024-01-11T08:55:34.861Z,1.04
2024-01-11T09:00:38.350Z,1.09
2024-01-11T09:05:40.538Z,1.12
2024-01-11T09:10:42.208Z,1.13
2024-01-11T09:15:43.716Z,1.15
2024-01-11T09:20:45.226Z,1.17
2024-01-11T09:25:46.861Z,1.16
2024-01-11T09:30:48.459Z,1.17
2024-01-11T09:35:50.043Z,1.18
2024-01-11T09:41:11.926Z,1.21
2024-01-11T09:46:16.948Z,1.21
2024-01-11T09:51:18.529Z,1.25
2024-01-11T09:56:20.259Z,1.23
2024-01-11T10:01:22.742Z,1.24
2024-01-11T10:06:26.841Z,1.25
2024-01-11T10:11:28.438Z,1.26
2024-01-11T10:16:30.490Z,1.28
2024-01-11T10:21:32.400Z,1.32
2024-01-11T10:26:34.245Z,1.35
2024-01-11T10:31:35.887Z,1.37
2024-01-11T10:36:37.735Z,1.36
2024-01-11T10:41:48.726Z,1.36
2024-01-11T10:46:51.237Z,1.38
2024-01-11T10:52:08.389Z,1.36
2024-01-11T10:57:12.600Z,1.35
2024-01-11T11:02:16.375Z,1.35
2024-01-11T11:07:19.315Z,1.35
2024-01-11T11:12:22.456Z,1.36
2024-01-11T11:17:24.593Z,1.35
2024-01-11T11:22:27.979Z,1.39
2024-01-11T11:27:30.839Z,1.43
2024-01-11T11:32:42.766Z,1.45
2024-01-11T11:37:44.771Z,1.46
2024-01-11T11:42:46.868Z,1.49
2024-01-11T11:47:48.523Z,1.51
2024-01-11T11:52:57.596Z,1.50
2024-01-11T11:57:59.095Z,1.48
2024-01-11T12:03:04.359Z,1.46
2024-01-11T12:08:06.524Z,1.45
2024-01-11T12:13:08.170Z,1.38
2024-01-11T12:18:10.529Z,1.44
2024-01-11T12:23:15.040Z,1.45
2024-01-11T12:28:17.516Z,1.47
2024-01-11T12:33:20.130Z,1.55
2024-01-11T12:38:22.420Z,1.56
2024-01-11T12:43:24.667Z,1.54
2024-01-11T12:48:26.636Z,1.55
2024-01-11T12:53:29.380Z,1.57
2024-01-11T12:58:30.973Z,1.55
2024-01-11T13:03:32.632Z,1.51
2024-01-11T13:08:40.417Z,1.53
2024-01-11T13:13:42.022Z,1.56
2024-01-11T13:18:43.854Z,1.62
2024-01-11T13:23:45.648Z,1.65
2024-01-11T13:28:47.264Z,1.68
2024-01-11T13:33:49.516Z,1.70
2024-01-11T13:38:52.032Z,1.74
2024-01-11T13:43:54.866Z,1.75
2024-01-11T13:48:56.499Z,1.77
2024-01-11T13:54:02.028Z,1.81
2024-01-11T13:59:04.327Z,1.85
2024-01-11T14:04:07.667Z,1.91
2024-01-11T14:09:36.602Z,1.96
2024-01-11T14:14:38.943Z,2.00
2024-01-11T14:19:40.671Z,2.02
2024-01-11T14:24:42.461Z,2.04
2024-01-11T14:29:44.163Z,2.05
2024-01-11T14:34:45.768Z,2.05
2024-01-11T14:39:49.876Z,2.08
2024-01-11T14:44:51.843Z,2.07
2024-01-11T14:49:53.562Z,1.98
2024-01-11T14:54:56.049Z,1.97
2024-01-11T15:00:00.691Z,1.96
2024-01-11T15:05:04.494Z,1.93
2024-01-11T15:10:07.123Z,1.94
2024-01-11T15:15:11.656Z,1.95
2024-01-11T15:20:20.035Z,1.99
2024-01-11T15:25:21.658Z,1.97
2024-01-11T15:30:23.965Z,1.94
2024-01-11T15:35:28.712Z,1.87
2024-01-11T15:40:31.794Z,1.79
2024-01-11T15:45:34.848Z,1.74
2024-01-11T15:50:38.242Z,1.65
2024-01-11T15:55:40.357Z,1.62
2024-01-11T16:00:45.624Z,1.61
2024-01-11T16:05:47.574Z,1.60
2024-01-11T16:10:49.699Z,1.56
2024-01-11T16:15:57.210Z,1.48
2024-01-11T16:20:58.976Z,1.36
2024-01-11T16:26:01.224Z,1.24
2024-01-11T16:31:04.297Z,1.17
2024-01-11T16:36:07.259Z,1.08
2024-01-11T16:41:11.772Z,0.96
2024-01-11T16:46:25.614Z,0.95
2024-01-11T16:51:29.079Z,0.91
2024-01-11T16:56:31.125Z,0.84
2024-01-11T17:01:33.222Z,0.74
2024-01-11T17:06:35.695Z,0.68
2024-01-11T17:11:45.510Z,0.65
2024-01-11T17:16:48.065Z,0.59
2024-01-11T17:21:49.815Z,0.53
2024-01-11T17:26:51.782Z,0.44
2024-01-11T17:31:53.828Z,0.40
2024-01-11T17:36:55.348Z,0.34
2024-01-11T17:42:00.120Z,0.37
2024-01-11T17:47:01.734Z,0.29
2024-01-11T17:52:04.898Z,0.18
2024-01-11T17:57:07.985Z,0.13
2024-01-11T18:02:09.918Z,0.07
2024-01-11T18:07:11.603Z,0.03
2024-01-11T18:12:16.138Z,-0.02
2024-01-11T18:17:18.077Z,-0.05
2024-01-11T18:22:30.171Z,-0.11
2024-01-11T18:27:35.908Z,-0.19
2024-01-11T18:32:40.190Z,-0.25
2024-01-11T18:37:42.322Z,-0.31
2024-01-11T18:42:44.059Z,-0.33
2024-01-11T18:47:50.019Z,-0.37
2024-01-11T18:52:52.332Z,-0.42
2024-01-11T18:57:55.651Z,-0.43
2024-01-11T19:02:59.044Z,-0.42
2024-01-11T19:08:00.892Z,-0.37
2024-01-11T19:13:02.712Z,-0.22
2024-01-11T19:18:11.233Z,-0.20
2024-01-11T19:23:13.733Z,-0.20
2024-01-11T19:28:15.583Z,-0.19
2024-01-11T19:33:20.361Z,-0.21
2024-01-11T19:38:22.234Z,-0.25
2024-01-11T19:43:26.554Z,-0.35
2024-01-11T19:48:28.322Z,-0.51
2024-01-11T19:53:30.227Z,-0.62
2024-01-11T19:58:37.013Z,-0.69
2024-01-11T20:03:42.089Z,-0.81
2024-01-11T20:08:44.150Z,-0.96
2024-01-11T20:13:48.899Z,-1.04
2024-01-11T20:18:50.794Z,-1.10
2024-01-11T20:23:52.698Z,-1.20
2024-01-11T20:28:54.455Z,-1.20
2024-01-11T20:33:56.721Z,-1.25
2024-01-11T20:38:58.860Z,-1.31
2024-01-11T20:44:11.269Z,-1.34
2024-01-11T20:49:15.664Z,-1.40
2024-01-11T20:54:19.586Z,-1.42
2024-01-11T20:59:21.397Z,-1.48
2024-01-11T21:04:25.202Z,-1.58
2024-01-11T21:09:26.997Z,-1.63
2024-01-11T21:14:36.368Z,-1.71
2024-01-11T21:19:52.185Z,-1.69
2024-01-11T21:24:57.383Z,-1.74
2024-01-11T21:30:08.525Z,-1.79
2024-01-11T21:35:11.585Z,-1.85
2024-01-11T21:40:20.752Z,-1.93
2024-01-11T21:45:26.815Z,-2.02
2024-01-11T21:50:31.175Z,-2.11
2024-01-11T21:55:33.244Z,-2.24
2024-01-11T22:00:37.846Z,-2.35
2024-01-11T22:05:40.256Z,-2.41
2024-01-11T22:10:54.875Z,-2.44
2024-01-11T22:16:20.103Z,-2.51
2024-01-11T22:21:22.659Z,-2.52
2024-01-11T22:26:29.373Z,-2.53
2024-01-11T22:31:40.610Z,-2.62
2024-01-11T22:36:50.136Z,-2.63
2024-01-11T22:42:05.088Z,-2.71
2024-01-11T22:47:22.187Z,-2.82
2024-01-11T22:52:27.098Z,-2.89
2024-01-11T22:57:32.167Z,-2.97
2024-01-11T23:02:49.656Z,-3.02
2024-01-11T23:08:02.302Z,-3.12
2024-01-11T23:13:13.373Z,-3.17
2024-01-11T23:18:36.475Z,-3.20
2024-01-11T23:23:57.615Z,-3.26
2024-01-11T23:28:59.721Z,-3.34
2024-01-11T23:34:16.793Z,-3.43
2024-01-11T23:39:26.797Z,-3.52
2024-01-11T23:44:40.122Z,-3.58
2024-01-11T23:49:53.261Z,-3.71
2024-01-11T23:55:17.117Z,-3.80
